Time;durP1;ratioP1;P1;durP2;ratioP2;P2;SDS_P1;SDS_P2;PMS_P1;PMS_P2;Temp;Humidity;BMP_temperature;BMP_pressure;BME280_temperature;BME280_humidity;BME280_pressure;Samples;Min_cycle;Max_cycle;Signal;HPM_P1;HPM_P2
2022/03/21 00:00:00;;;;;;;;;;;;;;;0.19;100.00;102919.13;5251225;28;19912;-83
2022/03/21 00:02:30;;;;;;;;;;;;;;;0.26;100.00;102924.75;5249565;28;19919;-82
2022/03/21 00:05:01;;;;;;;;;;;;;;;0.27;100.00;102929.09;5250263;28;19912;-82
2022/03/21 00:07:31;;;;;;;;;;;;;;;0.26;100.00;102919.44;5247563;28;20432;-81
2022/03/21 00:10:02;;;;;;;;;;;;;;;0.21;100.00;102926.97;5248521;28;20015;-82
2022/03/21 00:12:34;;;;;;;;;;;;;;;0.19;100.00;102926.25;5248512;28;19913;-80
2022/03/21 00:15:05;;;;;;;;;;;;;;;0.15;100.00;102924.84;5249287;28;19920;-82
2022/03/21 00:17:39;;;;;;;;;;;;;;;0.13;100.00;102930.31;5250311;28;19913;-82
2022/03/21 00:20:09;;;;;;;;;;;;;;;0.09;100.00;102926.22;5249861;28;19912;-81
2022/03/21 00:22:40;;;;;;;;;;;;;;;0.00;100.00;102921.75;5250274;28;19925;-82
2022/03/21 00:25:10;;;;;;;;;;;;;;;-0.10;100.00;102932.34;5249878;28;19912;-82
2022/03/21 00:27:40;;;;;;;;;;;;;;;-0.22;100.00;102936.06;5250013;28;20370;-81
2022/03/21 00:30:11;;;;;;;;;;;;;;;-0.30;100.00;102938.56;5247769;28;19917;-83
2022/03/21 00:32:42;;;;;;;;;;;;;;;-0.38;100.00;102931.28;5249514;28;19917;-82
2022/03/21 00:35:14;;;;;;;;;;;;;;;-0.47;100.00;102932.06;5249388;28;19920;-81
2022/03/21 00:37:45;;;;;;;;;;;;;;;-0.53;100.00;102929.94;5248417;28;19952;-82
2022/03/21 00:40:17;;;;;;;;;;;;;;;-0.56;100.00;102930.19;5249653;28;20565;-82
2022/03/21 00:42:48;;;;;;;;;;;;;;;-0.62;100.00;102930.75;5249391;28;19964;-82
2022/03/21 00:45:19;;;;;;;;;;;;;;;-0.66;100.00;102939.09;5249670;28;20404;-82
2022/03/21 00:47:49;;;;;;;;;;;;;;;-0.73;100.00;102936.97;5249404;28;19939;-82
2022/03/21 00:50:21;;;;;;;;;;;;;;;-0.76;100.00;102936.38;5249305;28;19951;-81
2022/03/21 00:52:52;;;;;;;;;;;;;;;-0.76;100.00;102934.56;5248432;28;19966;-80
2022/03/21 00:55:26;;;;;;;;;;;;;;;-0.79;100.00;102932.16;5248009;28;20621;-80
2022/03/21 00:57:57;;;;;;;;;;;;;;;-0.83;100.00;102936.06;5248288;28;19920;-82
2022/03/21 01:00:28;;;;;;;;;;;;;;;-0.85;100.00;102931.84;5249207;28;19912;-82
2022/03/21 01:03:00;;;;;;;;;;;;;;;-0.84;100.00;102938.84;5249437;28;20450;-83
2022/03/21 01:05:30;;;;;;;;;;;;;;;-0.89;100.00;102936.59;5247803;28;20007;-82
2022/03/21 01:08:02;;;;;;;;;;;;;;;-0.87;100.00;102937.31;5250006;28;20334;-82
2022/03/21 01:10:33;;;;;;;;;;;;;;;-0.81;100.00;102939.41;5249623;28;19920;-82
2022/03/21 01:13:03;;;;;;;;;;;;;;;-0.81;100.00;102942.06;5248978;28;19918;-81
2022/03/21 01:15:34;;;;;;;;;;;;;;;-0.83;100.00;102936.06;5249154;28;19913;-82
2022/03/21 01:18:04;;;;;;;;;;;;;;;-0.76;100.00;102937.22;5248257;28;19951;-83
2022/03/21 01:20:34;;;;;;;;;;;;;;;-0.62;100.00;102943.16;5249490;28;19984;-82
2022/03/21 01:23:04;;;;;;;;;;;;;;;-0.57;100.00;102935.63;5249154;28;19919;-82
2022/03/21 01:25:35;;;;;;;;;;;;;;;-0.53;100.00;102939.69;5249543;28;19934;-82
2022/03/21 01:28:05;;;;;;;;;;;;;;;-0.47;100.00;102937.38;5248045;28;20120;-81
2022/03/21 01:30:36;;;;;;;;;;;;;;;-0.39;100.00;102937.56;5248880;28;19920;-80
2022/03/21 01:33:12;;;;;;;;;;;;;;;-0.37;100.00;102940.06;5248108;28;19913;-82
2022/03/21 01:35:42;;;;;;;;;;;;;;;-0.39;100.00;102931.41;5248186;28;19916;-82
2022/03/21 01:38:13;;;;;;;;;;;;;;;-0.47;100.00;102929.41;5249041;28;19919;-82
2022/03/21 01:40:43;;;;;;;;;;;;;;;-0.61;100.00;102934.25;5247489;28;19912;-81
2022/03/21 01:43:13;;;;;;;;;;;;;;;-0.81;100.00;102942.06;5248861;28;19924;-81
2022/03/21 01:45:43;;;;;;;;;;;;;;;-0.94;100.00;102938.78;5249062;28;19912;-82
2022/03/21 01:48:14;;;;;;;;;;;;;;;-1.03;100.00;102937.75;5249023;28;19913;-83
2022/03/21 01:50:45;;;;;;;;;;;;;;;-1.14;100.00;102943.09;5247709;28;19916;-82
2022/03/21 01:56:05;;;;;;;;;;;;;;;-1.16;100.00;102944.22;5254410;28;19936;-81
2022/03/21 01:58:35;;;;;;;;;;;;;;;-1.11;100.00;102942.84;5253218;28;19912;-82
2022/03/21 02:01:05;;;;;;;;;;;;;;;-1.02;100.00;102942.09;5249257;28;19912;-82
2022/03/21 02:03:35;;;;;;;;;;;;;;;-0.95;100.00;102942.41;5248829;28;19940;-82
2022/03/21 02:06:06;;;;;;;;;;;;;;;-0.99;100.00;102941.00;5247382;28;19992;-81
2022/03/21 02:08:36;;;;;;;;;;;;;;;-0.98;100.00;102942.66;5248939;28;19999;-82
2022/03/21 02:11:06;;;;;;;;;;;;;;;-0.92;100.00;102939.50;5248876;28;19913;-81
2022/03/21 02:13:37;;;;;;;;;;;;;;;-1.29;100.00;102877.28;5248561;28;19912;-81
2022/03/21 02:16:08;;;;;;;;;;;;;;;-0.80;100.00;102946.41;5249244;28;19913;-81
2022/03/21 02:18:39;;;;;;;;;;;;;;;-0.71;100.00;102952.75;5252576;28;19920;-81
2022/03/21 02:21:14;;;;;;;;;;;;;;;-0.63;100.00;102942.31;5252272;28;19912;-80
2022/03/21 02:24:07;;;;;;;;;;;;;;;-0.61;100.00;102950.16;5250802;28;19913;-81
2022/03/21 02:26:38;;;;;;;;;;;;;;;-0.68;100.00;102948.03;5251452;28;20366;-79
2022/03/21 02:29:08;;;;;;;;;;;;;;;-0.77;100.00;102943.50;5251819;28;19958;-82
2022/03/21 02:31:39;;;;;;;;;;;;;;;-0.85;100.00;102948.59;5250842;28;19912;-81
2022/03/21 02:34:10;;;;;;;;;;;;;;;-0.81;100.00;102950.03;5249755;28;19913;-82
2022/03/21 02:36:40;;;;;;;;;;;;;;;-0.71;100.00;102950.09;5251706;28;19912;-82
2022/03/21 02:39:11;;;;;;;;;;;;;;;-0.73;100.00;102942.25;5251420;28;19919;-81
2022/03/21 02:41:41;;;;;;;;;;;;;;;-0.77;100.00;102946.16;5251651;28;19951;-82
2022/03/21 02:44:12;;;;;;;;;;;;;;;-0.77;100.00;102942.66;5251475;28;20009;-79
2022/03/21 02:46:42;;;;;;;;;;;;;;;-0.82;100.00;102945.69;5252008;28;20289;-81
2022/03/21 02:49:16;;;;;;;;;;;;;;;-0.86;100.00;102946.91;5250471;28;19963;-81
2022/03/21 02:51:46;;;;;;;;;;;;;;;-0.97;100.00;102941.69;5251920;28;20011;-80
2022/03/21 02:54:19;;;;;;;;;;;;;;;-1.08;100.00;102947.06;5251348;28;19974;-81
2022/03/21 02:56:50;;;;;;;;;;;;;;;-1.05;100.00;102950.28;5250196;28;19968;-82
2022/03/21 02:59:20;;;;;;;;;;;;;;;-1.10;100.00;102938.38;5251437;28;19912;-82
2022/03/21 03:01:53;;;;;;;;;;;;;;;-1.07;100.00;102946.09;5251372;28;19959;-82
2022/03/21 03:04:24;;;;;;;;;;;;;;;-1.01;100.00;102950.88;5250842;28;19943;-81
2022/03/21 03:06:55;;;;;;;;;;;;;;;-0.90;100.00;102944.69;5252248;28;19924;-82
2022/03/21 03:09:25;;;;;;;;;;;;;;;-0.79;100.00;102947.25;5252169;28;19962;-81
2022/03/21 03:11:55;;;;;;;;;;;;;;;-0.73;100.00;102950.22;5250872;28;19912;-80
2022/03/21 03:14:26;;;;;;;;;;;;;;;-0.69;100.00;102951.66;5250329;28;19995;-78
2022/03/21 03:16:56;;;;;;;;;;;;;;;-0.79;100.00;102948.09;5253601;28;19912;-78
2022/03/21 03:19:26;;;;;;;;;;;;;;;-0.86;100.00;102943.41;5252958;28;19913;-80
2022/03/21 03:21:57;;;;;;;;;;;;;;;-0.81;100.00;102952.69;5253944;28;19912;-80
2022/03/21 03:24:27;;;;;;;;;;;;;;;-0.71;100.00;102953.59;5252394;28;19939;-82
2022/03/21 03:26:58;;;;;;;;;;;;;;;-0.71;100.00;102955.41;5250858;28;20409;-82
2022/03/21 03:29:28;;;;;;;;;;;;;;;-0.78;100.00;102957.72;5251161;28;19986;-82
2022/03/21 03:32:00;;;;;;;;;;;;;;;-0.87;100.00;102953.22;5251393;28;19913;-82
2022/03/21 03:34:31;;;;;;;;;;;;;;;-0.97;100.00;102965.56;5249475;28;20294;-82
2022/03/21 03:37:02;;;;;;;;;;;;;;;-0.97;100.00;102962.06;5251846;28;19942;-81
2022/03/21 03:39:32;;;;;;;;;;;;;;;-1.00;100.00;102964.97;5252364;28;20010;-82
2022/03/21 03:42:02;;;;;;;;;;;;;;;-1.02;100.00;102959.81;5250513;28;19923;-81
2022/03/21 03:44:33;;;;;;;;;;;;;;;-1.13;100.00;102971.28;5290579;22;19947;-79
2022/03/21 03:47:03;;;;;;;;;;;;;;;-1.16;100.00;102971.56;5276293;28;19916;-79
2022/03/21 03:49:33;;;;;;;;;;;;;;;-1.11;100.00;102971.16;5281406;28;20423;-79
2022/03/21 03:52:04;;;;;;;;;;;;;;;-1.16;100.00;102968.09;5281585;28;19920;-79
2022/03/21 03:54:34;;;;;;;;;;;;;;;-1.18;100.00;102967.38;5278391;28;19911;-79
2022/03/21 03:57:04;;;;;;;;;;;;;;;-1.15;100.00;102959.97;5278598;28;19940;-79
2022/03/21 03:59:34;;;;;;;;;;;;;;;-1.05;100.00;102968.00;5278160;28;19921;-79
2022/03/21 04:02:05;;;;;;;;;;;;;;;-0.99;100.00;102970.16;5278403;28;19913;-79
2022/03/21 04:04:35;;;;;;;;;;;;;;;-0.95;100.00;102965.44;5277097;28;19994;-79
2022/03/21 04:07:06;;;;;;;;;;;;;;;-0.92;100.00;102971.34;5259521;28;19916;-79
2022/03/21 04:09:36;;;;;;;;;;;;;;;-1.05;100.00;102970.66;5259394;28;20297;-80
2022/03/21 04:12:07;;;;;;;;;;;;;;;-1.18;100.00;102962.06;5276995;28;20246;-79
2022/03/21 04:14:37;;;;;;;;;;;;;;;-1.21;100.00;102970.28;5276580;28;19965;-79
2022/03/21 04:17:07;;;;;;;;;;;;;;;-1.22;100.00;102974.72;5277163;28;20389;-78
2022/03/21 04:19:37;;;;;;;;;;;;;;;-1.21;100.00;102981.72;5276115;28;19912;-79
2022/03/21 04:22:08;;;;;;;;;;;;;;;-1.17;100.00;102979.66;5276913;28;19912;-79
2022/03/21 04:24:38;;;;;;;;;;;;;;;-1.10;100.00;102979.00;5277230;28;19920;-79
2022/03/21 04:27:08;;;;;;;;;;;;;;;-1.07;100.00;102984.03;5277583;28;19915;-79
2022/03/21 04:29:38;;;;;;;;;;;;;;;-1.12;100.00;102980.94;5277484;28;19922;-79
2022/03/21 04:32:09;;;;;;;;;;;;;;;-1.20;100.00;102974.59;5277800;28;19919;-79
2022/03/21 04:34:39;;;;;;;;;;;;;;;-1.22;100.00;102984.50;5278136;28;19912;-79
2022/03/21 04:37:10;;;;;;;;;;;;;;;-1.28;100.00;102977.03;5282588;28;19912;-79
2022/03/21 04:39:40;;;;;;;;;;;;;;;-1.38;100.00;102977.78;5284297;28;20375;-79
2022/03/21 04:42:11;;;;;;;;;;;;;;;-1.40;100.00;102976.22;5281677;28;20006;-79
2022/03/21 04:44:41;;;;;;;;;;;;;;;-1.43;100.00;102979.97;5260710;28;20330;-78
2022/03/21 04:47:11;;;;;;;;;;;;;;;-1.46;100.00;102982.91;5285109;28;20033;-79
2022/03/21 04:49:42;;;;;;;;;;;;;;;-1.48;100.00;102981.34;5284492;28;19923;-78
2022/03/21 04:52:12;;;;;;;;;;;;;;;-1.51;100.00;102982.41;5285875;28;20042;-78
2022/03/21 04:54:42;;;;;;;;;;;;;;;-1.52;100.00;102990.50;5284390;28;20251;-79
2022/03/21 04:57:13;;;;;;;;;;;;;;;-1.51;100.00;102998.31;5284178;28;19912;-79
2022/03/21 04:59:44;;;;;;;;;;;;;;;-1.55;100.00;102999.53;5285331;28;19912;-79
2022/03/21 05:02:14;;;;;;;;;;;;;;;-1.55;100.00;102996.88;5284332;28;19912;-79
2022/03/21 05:04:45;;;;;;;;;;;;;;;-1.69;100.00;102999.78;5258297;28;19919;-79
2022/03/21 05:07:19;;;;;;;;;;;;;;;-1.74;100.00;103002.00;5276930;28;20366;-79
2022/03/21 05:09:49;;;;;;;;;;;;;;;-1.78;100.00;102995.25;5259676;28;20389;-79
2022/03/21 05:12:20;;;;;;;;;;;;;;;-1.82;100.00;103007.03;5277805;28;19912;-79
2022/03/21 05:14:50;;;;;;;;;;;;;;;-1.88;100.00;103005.72;5263712;28;19919;-79
2022/03/21 05:17:20;;;;;;;;;;;;;;;-1.90;100.00;103012.94;5283114;28;19912;-79
2022/03/21 05:19:52;;;;;;;;;;;;;;;-1.92;100.00;103004.28;5280548;28;19912;-80
2022/03/21 05:22:22;;;;;;;;;;;;;;;-1.89;100.00;102997.91;5280104;28;19912;-80
2022/03/21 05:36:09;;;;;;;;;;;;;;;-1.62;100.00;102997.50;5276041;28;19954;-80
2022/03/21 05:38:39;;;;;;;;;;;;;;;-1.63;100.00;102999.28;5276419;28;19912;-81
2022/03/21 05:41:09;;;;;;;;;;;;;;;-1.70;100.00;103000.75;5276095;28;19912;-80
2022/03/21 05:43:40;;;;;;;;;;;;;;;-1.76;100.00;103003.91;5276346;28;19974;-80
2022/03/21 05:46:10;;;;;;;;;;;;;;;-1.76;100.00;103009.22;5278019;28;19946;-81
2022/03/21 05:51:34;;;;;;;;;;;;;;;-1.72;100.00;103010.63;5277528;28;19983;-80
2022/03/21 05:54:05;;;;;;;;;;;;;;;-1.69;100.00;103010.38;5279913;28;20442;-80
2022/03/21 05:56:36;;;;;;;;;;;;;;;-1.62;100.00;103006.28;5280215;28;19916;-80
2022/03/21 06:01:55;;;;;;;;;;;;;;;-1.55;100.00;103014.59;5280130;28;19966;-80
2022/03/21 06:04:25;;;;;;;;;;;;;;;-1.55;100.00;103015.44;5279632;28;20297;-79
2022/03/21 06:06:55;;;;;;;;;;;;;;;-1.55;100.00;103012.78;5262292;28;19923;-80
2022/03/21 06:09:26;;;;;;;;;;;;;;;-1.51;100.00;103011.56;5262135;28;19916;-79
2022/03/21 06:11:56;;;;;;;;;;;;;;;-1.48;100.00;103023.72;5282084;28;19919;-79
2022/03/21 06:14:26;;;;;;;;;;;;;;;-1.48;100.00;103018.44;5281112;28;19965;-80
2022/03/21 06:16:56;;;;;;;;;;;;;;;-1.48;100.00;103027.22;5278330;28;20306;-80
2022/03/21 06:19:27;;;;;;;;;;;;;;;-1.49;100.00;103030.00;5262992;28;19919;-80
2022/03/21 06:21:58;;;;;;;;;;;;;;;-1.43;100.00;103032.13;5280997;28;19980;-80
2022/03/21 06:24:29;;;;;;;;;;;;;;;-1.19;100.00;103034.59;5263322;28;19912;-80
2022/03/21 06:26:59;;;;;;;;;;;;;;;-0.99;100.00;103035.59;5283198;28;19996;-80
2022/03/21 06:29:29;;;;;;;;;;;;;;;-0.82;100.00;103043.84;5284150;28;19924;-79
2022/03/21 06:31:59;;;;;;;;;;;;;;;-0.75;100.00;103050.31;5284700;28;19912;-79
2022/03/21 06:34:30;;;;;;;;;;;;;;;-0.69;100.00;103048.97;5268882;28;19912;-80
2022/03/21 06:37:02;;;;;;;;;;;;;;;-0.61;100.00;103048.34;5267003;28;19922;-80
2022/03/21 06:39:32;;;;;;;;;;;;;;;-0.40;100.00;103050.00;5268441;28;19912;-80
2022/03/21 06:42:03;;;;;;;;;;;;;;;-0.15;100.00;103055.88;5281281;28;19919;-81
2022/03/21 06:44:33;;;;;;;;;;;;;;;0.01;100.00;103050.91;5261554;28;19923;-82
2022/03/21 06:47:04;;;;;;;;;;;;;;;0.08;100.00;103044.09;5263845;28;19912;-83
2022/03/21 06:49:35;;;;;;;;;;;;;;;0.20;100.00;103048.34;5281228;28;19927;-83
2022/03/21 06:52:08;;;;;;;;;;;;;;;0.36;100.00;103053.13;5263856;28;19946;-83
2022/03/21 06:54:38;;;;;;;;;;;;;;;0.47;100.00;103050.38;5262685;28;19916;-83
2022/03/21 06:57:09;;;;;;;;;;;;;;;0.55;100.00;103055.88;5282234;28;19912;-83
2022/03/21 06:59:41;;;;;;;;;;;;;;;0.69;100.00;103057.28;5283353;28;19920;-84
2022/03/21 07:02:11;;;;;;;;;;;;;;;0.82;100.00;103055.22;5270705;28;19995;-84
2022/03/21 07:04:42;;;;;;;;;;;;;;;0.90;100.00;103051.84;5269577;28;19938;-84
2022/03/21 07:07:12;;;;;;;;;;;;;;;1.02;100.00;103056.06;5281785;28;19912;-84
2022/03/21 07:09:42;;;;;;;;;;;;;;;1.15;100.00;103055.78;5282375;28;19927;-84
2022/03/21 07:12:12;;;;;;;;;;;;;;;1.28;100.00;103057.19;5281638;28;19943;-86
2022/03/21 07:14:43;;;;;;;;;;;;;;;1.47;100.00;103053.63;5262802;28;19924;-87
2022/03/21 07:17:16;;;;;;;;;;;;;;;1.61;100.00;103055.03;5279358;28;19912;-85
2022/03/21 07:19:47;;;;;;;;;;;;;;;1.70;100.00;103056.84;5282622;28;19912;-86
2022/03/21 07:22:17;;;;;;;;;;;;;;;1.77;100.00;103057.09;5286078;28;19942;-85
2022/03/21 07:24:49;;;;;;;;;;;;;;;1.84;100.00;103064.38;5285826;28;19912;-85
2022/03/21 07:27:20;;;;;;;;;;;;;;;1.98;100.00;103061.25;5268809;28;20002;-85
2022/03/21 07:29:50;;;;;;;;;;;;;;;2.14;100.00;103065.09;5286175;28;19920;-85
2022/03/21 07:32:20;;;;;;;;;;;;;;;2.25;100.00;103057.78;5268919;28;19927;-85
2022/03/21 07:34:50;;;;;;;;;;;;;;;2.43;100.00;103057.81;5268907;28;19912;-83
2022/03/21 07:37:21;;;;;;;;;;;;;;;2.60;100.00;103061.53;5286782;28;19965;-85
2022/03/21 07:39:51;;;;;;;;;;;;;;;2.79;100.00;103049.88;5286869;28;19926;-85
2022/03/21 07:42:21;;;;;;;;;;;;;;;2.99;100.00;103051.41;5268752;28;19948;-84
2022/03/21 07:47:41;;;;;;;;;;;;;;;3.41;100.00;103058.78;5285417;28;19943;-86
2022/03/21 07:50:12;;;;;;;;;;;;;;;3.49;100.00;103059.66;5262653;28;19993;-87
2022/03/21 07:52:42;;;;;;;;;;;;;;;3.62;100.00;103060.13;5277126;28;19983;-85
2022/03/21 07:55:12;;;;;;;;;;;;;;;3.74;100.00;103050.03;5278898;28;19912;-85
2022/03/21 07:57:43;;;;;;;;;;;;;;;3.89;100.00;103055.59;5280318;28;19912;-86
2022/03/21 08:00:14;;;;;;;;;;;;;;;4.02;100.00;103064.88;5278205;28;20002;-86
2022/03/21 08:02:45;;;;;;;;;;;;;;;4.20;100.00;103055.94;5276013;28;19919;-86
2022/03/21 08:05:16;;;;;;;;;;;;;;;4.34;100.00;103055.31;5275864;28;20447;-86
2022/03/21 08:07:46;;;;;;;;;;;;;;;4.53;100.00;103059.59;5276056;28;19916;-86
2022/03/21 08:10:18;;;;;;;;;;;;;;;4.65;100.00;103058.25;5258838;28;19916;-85
2022/03/21 08:12:49;;;;;;;;;;;;;;;4.88;100.00;103058.50;5266129;28;20297;-83
2022/03/21 08:15:19;;;;;;;;;;;;;;;5.07;100.00;103059.03;5265921;28;19975;-82
2022/03/21 08:17:50;;;;;;;;;;;;;;;5.26;100.00;103067.72;5283612;28;19919;-82
2022/03/21 08:20:21;;;;;;;;;;;;;;;5.41;100.00;103066.91;5267537;28;19912;-83
2022/03/21 08:22:52;;;;;;;;;;;;;;;5.61;100.00;103071.91;5285002;28;19919;-83
2022/03/21 08:25:22;;;;;;;;;;;;;;;5.76;100.00;103059.53;5265625;28;19918;-83
2022/03/21 08:27:52;;;;;;;;;;;;;;;5.92;100.00;103070.22;5285366;28;19912;-83
2022/03/21 08:30:23;;;;;;;;;;;;;;;6.10;100.00;103062.78;5265878;28;20158;-85
2022/03/21 08:32:53;;;;;;;;;;;;;;;6.31;100.00;103058.72;5283791;28;19912;-81
2022/03/21 08:35:23;;;;;;;;;;;;;;;6.55;100.00;103050.56;5283904;28;19967;-83
2022/03/21 08:37:54;;;;;;;;;;;;;;;6.87;100.00;103048.69;5268095;28;19925;-84
2022/03/21 08:40:24;;;;;;;;;;;;;;;7.21;100.00;103056.34;5286693;28;19912;-81
2022/03/21 08:42:55;;;;;;;;;;;;;;;7.55;100.00;103047.78;5286186;28;19911;-82
2022/03/21 08:45:26;;;;;;;;;;;;;;;7.90;100.00;103047.09;5284826;28;19916;-84
2022/03/21 08:47:56;;;;;;;;;;;;;;;8.15;100.00;103044.97;5266443;28;19947;-84
2022/03/21 08:50:27;;;;;;;;;;;;;;;8.39;100.00;103041.16;5282387;28;20007;-84
2022/03/21 08:52:58;;;;;;;;;;;;;;;8.73;100.00;103045.91;5281037;28;19912;-83
2022/03/21 08:55:28;;;;;;;;;;;;;;;9.06;100.00;103040.88;5262966;28;19912;-84
2022/03/21 08:57:59;;;;;;;;;;;;;;;9.27;100.00;103045.41;5262745;28;19916;-84
2022/03/21 09:00:29;;;;;;;;;;;;;;;9.48;100.00;103048.94;5287197;28;19934;-85
2022/03/21 09:02:59;;;;;;;;;;;;;;;9.68;100.00;103048.25;5291404;28;20428;-82
2022/03/21 09:05:29;;;;;;;;;;;;;;;9.86;100.00;103045.88;5290415;28;19940;-83
2022/03/21 09:08:00;;;;;;;;;;;;;;;10.03;100.00;103044.53;5266445;28;19913;-82
2022/03/21 09:10:30;;;;;;;;;;;;;;;10.23;100.00;103047.38;5285781;28;19916;-82
2022/03/21 09:13:00;;;;;;;;;;;;;;;10.40;100.00;103034.34;5285487;28;19918;-83
2022/03/21 09:15:30;;;;;;;;;;;;;;;10.60;100.00;103034.44;5284211;28;19920;-84
2022/03/21 09:18:02;;;;;;;;;;;;;;;10.78;100.00;103034.69;5271547;28;19912;-82
2022/03/21 09:20:32;;;;;;;;;;;;;;;10.82;100.00;103028.69;5290429;28;19912;-85
2022/03/21 09:23:03;;;;;;;;;;;;;;;10.94;100.00;103034.31;5274076;28;19922;-82
2022/03/21 09:25:34;;;;;;;;;;;;;;;11.16;100.00;103037.66;5288620;28;19912;-84
2022/03/21 09:28:04;;;;;;;;;;;;;;;11.30;100.00;103041.19;5274034;28;19916;-84
2022/03/21 09:30:36;;;;;;;;;;;;;;;11.49;100.00;103024.16;5286607;28;19916;-85
2022/03/21 09:33:07;;;;;;;;;;;;;;;11.68;100.00;103027.88;5284970;28;19919;-85
2022/03/21 09:35:37;;;;;;;;;;;;;;;11.85;100.00;103029.09;5281712;28;19912;-85
2022/03/21 09:38:07;;;;;;;;;;;;;;;11.65;100.00;102985.00;5279212;28;19919;-83
2022/03/21 09:40:37;;;;;;;;;;;;;;;11.71;100.00;102976.03;5280418;28;19966;-85
2022/03/21 09:43:08;;;;;;;;;;;;;;;12.18;100.00;103015.47;5307164;22;20228;-58
2022/03/21 09:45:39;;;;;;;;;;;;;;;12.38;100.00;103020.84;5273970;28;19924;-58
2022/03/21 09:48:12;;;;;;;;;;;;;;;12.43;100.00;103018.28;5275256;28;19912;-60
2022/03/21 09:50:44;;;;;;;;;;;;;;;12.59;100.00;103017.81;5253573;28;20002;-60
2022/03/21 09:53:15;;;;;;;;;;;;;;;12.70;100.00;103016.31;5253169;28;20395;-61
2022/03/21 09:55:46;;;;;;;;;;;;;;;12.70;100.00;103022.56;5253067;28;19919;-60
2022/03/21 09:58:16;;;;;;;;;;;;;;;12.77;100.00;103007.06;5253825;28;20001;-55
2022/03/21 10:00:48;;;;;;;;;;;;;;;12.86;100.00;103013.06;5253715;28;20360;-58
2022/03/21 10:03:19;;;;;;;;;;;;;;;13.03;100.00;103014.19;5253696;28;19990;-60
2022/03/21 10:05:50;;;;;;;;;;;;;;;13.10;100.00;103008.72;5272079;28;19912;-61
2022/03/21 10:08:21;;;;;;;;;;;;;;;13.10;100.00;103014.13;5253714;28;19922;-63
2022/03/21 10:11:02;;;;;;;;;;;;;;;13.19;100.00;103007.44;5253256;28;20011;-59
2022/03/21 10:13:36;;;;;;;;;;;;;;;13.32;100.00;103001.88;5271552;28;19912;-60
2022/03/21 10:16:06;;;;;;;;;;;;;;;13.64;100.00;102996.34;5271582;28;19912;-61
2022/03/21 10:18:37;;;;;;;;;;;;;;;13.80;100.00;102993.06;5253391;28;19912;-60
2022/03/21 10:21:12;;;;;;;;;;;;;;;13.98;100.00;102994.94;5253010;28;19912;-60
2022/03/21 10:23:45;;;;;;;;;;;;;;;14.02;100.00;102996.16;5271639;28;19912;-60
2022/03/21 10:26:42;;;;;;;;;;;;;;;14.15;100.00;102994.09;5254276;28;20002;-60
2022/03/21 10:29:13;;;;;;;;;;;;;;;14.18;100.00;102996.38;5250033;28;19924;-60
2022/03/21 10:31:46;;;;;;;;;;;;;;;14.16;100.00;102990.31;5253013;28;19916;-60
2022/03/21 10:34:18;;;;;;;;;;;;;;;14.30;100.00;102998.31;5252852;28;20323;-60
2022/03/21 10:37:01;;;;;;;;;;;;;;;14.38;100.00;102990.69;5252630;28;19912;-61
2022/03/21 10:39:35;;;;;;;;;;;;;;;14.60;100.00;102988.31;5253070;28;19912;-60
2022/03/21 10:42:07;;;;;;;;;;;;;;;14.86;100.00;102987.09;5252699;28;19912;-61
2022/03/21 10:44:37;;;;;;;;;;;;;;;14.87;100.00;102983.31;5252719;28;20295;-60
2022/03/21 10:47:09;;;;;;;;;;;;;;;14.93;100.00;102984.28;5257802;28;19912;-61
2022/03/21 10:49:46;;;;;;;;;;;;;;;14.99;100.00;102981.47;5273231;28;19919;-60
2022/03/21 10:52:17;;;;;;;;;;;;;;;15.11;100.00;102982.28;5273458;28;19912;-61
2022/03/21 10:54:49;;;;;;;;;;;;;;;15.30;100.00;102984.94;5273686;28;19916;-59
2022/03/21 10:57:28;;;;;;;;;;;;;;;15.38;100.00;102979.94;5274239;28;19916;-64
2022/03/21 11:00:15;;;;;;;;;;;;;;;15.45;100.00;102977.94;5273702;28;20268;-61
2022/03/21 11:02:57;;;;;;;;;;;;;;;15.52;100.00;102975.94;5273142;28;20127;-61
2022/03/21 11:05:30;;;;;;;;;;;;;;;15.67;100.00;102980.91;5273183;28;19919;-61
2022/03/21 11:08:00;;;;;;;;;;;;;;;15.75;100.00;102968.81;5291700;28;19996;-64
2022/03/21 11:10:31;;;;;;;;;;;;;;;15.78;100.00;102962.91;5272854;28;19920;-61
2022/03/21 11:13:03;;;;;;;;;;;;;;;15.71;100.00;102964.91;5272419;28;19916;-61
2022/03/21 11:15:35;;;;;;;;;;;;;;;15.84;100.00;102967.41;5272485;28;19916;-61
2022/03/21 11:18:06;;;;;;;;;;;;;;;16.13;100.00;102962.81;5291313;28;20002;-61
2022/03/21 11:20:37;;;;;;;;;;;;;;;16.30;100.00;102960.16;5272468;28;20015;-61
2022/03/21 11:23:08;;;;;;;;;;;;;;;16.40;98.78;102957.63;5272626;28;19918;-60
2022/03/21 11:25:40;;;;;;;;;;;;;;;16.36;100.00;102949.09;5273089;28;19912;-60
2022/03/21 11:28:16;;;;;;;;;;;;;;;16.45;97.09;102952.28;5273384;28;19912;-60
2022/03/21 11:30:56;;;;;;;;;;;;;;;16.33;96.05;102948.75;5272668;28;19938;-61
2022/03/21 11:33:42;;;;;;;;;;;;;;;16.35;97.49;102952.06;5272617;28;19918;-61
2022/03/21 11:36:12;;;;;;;;;;;;;;;16.48;96.64;102954.47;5291334;28;20341;-61
2022/03/21 11:38:47;;;;;;;;;;;;;;;16.51;97.51;102956.72;5272736;28;20031;-61
2022/03/21 11:41:18;;;;;;;;;;;;;;;16.67;98.00;102955.97;5273040;28;19912;-61
2022/03/21 11:44:04;;;;;;;;;;;;;;;16.81;95.39;102951.00;5272287;28;19946;-61
2022/03/21 11:46:35;;;;;;;;;;;;;;;17.00;95.08;102947.00;5274101;28;20011;-61
2022/03/21 11:49:27;;;;;;;;;;;;;;;17.00;97.49;102952.44;5273591;28;19911;-61
2022/03/21 11:51:58;;;;;;;;;;;;;;;17.13;96.95;102954.00;5263829;28;19912;-61
2022/03/21 11:54:33;;;;;;;;;;;;;;;17.26;95.07;102941.91;5292037;28;19911;-61
2022/03/21 11:57:04;;;;;;;;;;;;;;;17.29;95.79;102947.72;5273803;28;19912;-61
2022/03/21 11:59:35;;;;;;;;;;;;;;;17.38;94.75;102943.47;5273251;28;19912;-62
2022/03/21 12:02:11;;;;;;;;;;;;;;;17.49;91.25;102942.53;5272056;28;19981;-63
2022/03/21 12:04:42;;;;;;;;;;;;;;;17.47;90.10;102944.69;5271886;28;19912;-61
2022/03/21 12:07:12;;;;;;;;;;;;;;;17.56;89.76;102939.63;5272162;28;20402;-60
2022/03/21 12:09:50;;;;;;;;;;;;;;;17.61;93.51;102927.94;5272229;28;19999;-60
2022/03/21 12:12:22;;;;;;;;;;;;;;;17.58;88.88;102923.81;5290220;28;19999;-60
2022/03/21 12:14:58;;;;;;;;;;;;;;;17.69;90.97;102927.53;5272138;28;20292;-60
2022/03/21 12:17:28;;;;;;;;;;;;;;;17.89;87.96;102925.06;5271731;28;19912;-61
2022/03/21 12:20:03;;;;;;;;;;;;;;;17.71;83.80;102928.09;5271745;28;19911;-61
2022/03/21 12:22:34;;;;;;;;;;;;;;;17.74;86.94;102922.13;5289823;28;20368;-61
2022/03/21 12:25:11;;;;;;;;;;;;;;;17.84;88.82;102919.53;5271396;28;19911;-61
2022/03/21 12:27:52;;;;;;;;;;;;;;;17.95;87.37;102912.25;5271448;28;19912;-62
2022/03/21 12:30:32;;;;;;;;;;;;;;;17.98;88.15;102919.94;5271978;28;20217;-61
2022/03/21 12:33:02;;;;;;;;;;;;;;;18.12;86.36;102913.84;5271633;28;19918;-61
2022/03/21 12:35:34;;;;;;;;;;;;;;;18.06;84.27;102914.88;5271455;28;20307;-60
2022/03/21 12:38:06;;;;;;;;;;;;;;;17.96;85.80;102912.00;5271588;28;20354;-63
2022/03/21 12:40:58;;;;;;;;;;;;;;;18.22;88.22;102908.47;5271179;28;19911;-61
2022/03/21 12:43:28;;;;;;;;;;;;;;;18.46;85.05;102906.28;5271070;28;19915;-60
2022/03/21 12:46:04;;;;;;;;;;;;;;;18.46;87.80;102908.19;5271365;28;19960;-61
2022/03/21 12:48:35;;;;;;;;;;;;;;;18.51;82.90;102908.19;5289478;28;19911;-61
2022/03/21 12:51:06;;;;;;;;;;;;;;;18.59;83.44;102899.53;5270806;28;19966;-60
2022/03/21 12:53:47;;;;;;;;;;;;;;;18.72;82.10;102907.34;5270811;28;19951;-60
2022/03/21 12:56:19;;;;;;;;;;;;;;;18.82;83.21;102907.41;5271007;28;19912;-61
2022/03/21 12:58:54;;;;;;;;;;;;;;;18.82;85.29;102903.84;5289937;28;19954;-61
2022/03/21 13:01:25;;;;;;;;;;;;;;;18.71;81.81;102902.13;5271629;28;19928;-63
2022/03/21 13:10:32;;;;;;;;;;;;;;;18.47;80.35;102907.09;5271583;28;19912;-64
2022/03/21 13:12:40;;;;;;;;;;;;;;;18.82;80.52;102906.59;5271285;28;21859;-62
2022/03/21 13:15:11;;;;;;;;;;;;;;;18.82;81.60;102895.63;5271046;28;19919;-62
2022/03/21 13:17:54;;;;;;;;;;;;;;;18.86;79.23;102894.84;5271976;28;20386;-62
2022/03/21 13:22:55;;;;;;;;;;;;;;;19.13;81.23;102894.75;5289119;28;19912;-60